sensor_id;sensor_type;location;lat;lon;timestamp;P1;durP1;ratioP1;P2;durP2;ratioP2
313;SDS011;143;51.634;7.112;2024-02-14T00:00:53;12.73;;;4.57;;
313;SDS011;143;51.634;7.112;2024-02-14T00:03:18;8.93;;;4.80;;
313;SDS011;143;51.634;7.112;2024-02-14T00:05:45;10.07;;;4.80;;
313;SDS011;143;51.634;7.112;2024-02-14T00:08:11;9.20;;;4.10;;
313;SDS011;143;51.634;7.112;2024-02-14T00:10:39;8.43;;;4.87;;
313;SDS011;143;51.634;7.112;2024-02-14T00:13:04;9.57;;;4.67;;
313;SDS011;143;51.634;7.112;2024-02-14T00:15:30;14.53;;;5.77;;
313;SDS011;143;51.634;7.112;2024-02-14T00:17:56;10.27;;;4.93;;
313;SDS011;143;51.634;7.112;2024-02-14T00:20:21;14.60;;;6.30;;
313;SDS011;143;51.634;7.112;2024-02-14T00:22:47;7.93;;;4.60;;
313;SDS011;143;51.634;7.112;2024-02-14T00:25:13;9.97;;;4.90;;
313;SDS011;143;51.634;7.112;2024-02-14T00:27:38;8.60;;;4.10;;
313;SDS011;143;51.634;7.112;2024-02-14T00:30:05;7.63;;;4.20;;
313;SDS011;143;51.634;7.112;2024-02-14T00:32:31;11.87;;;5.30;;
313;SDS011;143;51.634;7.112;2024-02-14T00:34:57;5.83;;;4.03;;
313;SDS011;143;51.634;7.112;2024-02-14T00:37:22;12.90;;;5.77;;
313;SDS011;143;51.634;7.112;2024-02-14T00:39:48;9.03;;;5.13;;
313;SDS011;143;51.634;7.112;2024-02-14T00:42:15;8.37;;;4.53;;
313;SDS011;143;51.634;7.112;2024-02-14T00:44:40;6.40;;;4.33;;
313;SDS011;143;51.634;7.112;2024-02-14T00:47:06;7.50;;;4.33;;
313;SDS011;143;51.634;7.112;2024-02-14T00:49:34;20.90;;;5.23;;
313;SDS011;143;51.634;7.112;2024-02-14T00:52:01;10.40;;;3.87;;
313;SDS011;143;51.634;7.112;2024-02-14T00:54:26;7.83;;;5.20;;
313;SDS011;143;51.634;7.112;2024-02-14T00:56:52;8.50;;;4.40;;
313;SDS011;143;51.634;7.112;2024-02-14T00:59:17;7.13;;;4.33;;
313;SDS011;143;51.634;7.112;2024-02-14T01:01:43;9.33;;;4.90;;
313;SDS011;143;51.634;7.112;2024-02-14T01:04:09;8.30;;;4.67;;
313;SDS011;143;51.634;7.112;2024-02-14T01:06:35;5.13;;;4.20;;
313;SDS011;143;51.634;7.112;2024-02-14T01:09:00;14.47;;;4.00;;
313;SDS011;143;51.634;7.112;2024-02-14T01:11:26;13.03;;;5.70;;
313;SDS011;143;51.634;7.112;2024-02-14T01:13:51;8.70;;;5.00;;
313;SDS011;143;51.634;7.112;2024-02-14T01:16:17;8.63;;;4.73;;
313;SDS011;143;51.634;7.112;2024-02-14T01:18:43;7.87;;;4.50;;
313;SDS011;143;51.634;7.112;2024-02-14T01:21:08;10.13;;;4.50;;
313;SDS011;143;51.634;7.112;2024-02-14T01:23:34;7.97;;;4.87;;
313;SDS011;143;51.634;7.112;2024-02-14T01:26:00;20.90;;;4.80;;
313;SDS011;143;51.634;7.112;2024-02-14T01:28:27;7.10;;;4.67;;
313;SDS011;143;51.634;7.112;2024-02-14T01:30:52;11.20;;;4.87;;
313;SDS011;143;51.634;7.112;2024-02-14T01:33:18;7.33;;;4.00;;
313;SDS011;143;51.634;7.112;2024-02-14T01:35:43;11.90;;;5.13;;
313;SDS011;143;51.634;7.112;2024-02-14T01:38:09;14.43;;;4.80;;
313;SDS011;143;51.634;7.112;2024-02-14T01:40:34;7.07;;;4.03;;
313;SDS011;143;51.634;7.112;2024-02-14T01:43:00;5.47;;;3.60;;
313;SDS011;143;51.634;7.112;2024-02-14T01:45:26;6.63;;;4.30;;
313;SDS011;143;51.634;7.112;2024-02-14T01:47:52;6.50;;;4.10;;
313;SDS011;143;51.634;7.112;2024-02-14T01:50:18;12.50;;;3.60;;
313;SDS011;143;51.634;7.112;2024-02-14T01:52:53;8.93;;;4.07;;
313;SDS011;143;51.634;7.112;2024-02-14T01:55:19;10.53;;;3.90;;
313;SDS011;143;51.634;7.112;2024-02-14T01:57:46;7.77;;;3.10;;
313;SDS011;143;51.634;7.112;2024-02-14T02:00:13;10.20;;;3.90;;
313;SDS011;143;51.634;7.112;2024-02-14T02:02:41;5.70;;;3.70;;
313;SDS011;143;51.634;7.112;2024-02-14T02:05:07;7.80;;;4.17;;
313;SDS011;143;51.634;7.112;2024-02-14T02:07:32;6.43;;;3.27;;
313;SDS011;143;51.634;7.112;2024-02-14T02:09:58;8.57;;;3.20;;
313;SDS011;143;51.634;7.112;2024-02-14T02:12:24;8.00;;;3.23;;
313;SDS011;143;51.634;7.112;2024-02-14T02:14:52;5.57;;;3.10;;
313;SDS011;143;51.634;7.112;2024-02-14T02:17:20;6.87;;;3.13;;
313;SDS011;143;51.634;7.112;2024-02-14T02:19:46;6.63;;;3.13;;
313;SDS011;143;51.634;7.112;2024-02-14T02:22:12;7.67;;;3.10;;
313;SDS011;143;51.634;7.112;2024-02-14T02:24:37;6.43;;;2.93;;
313;SDS011;143;51.634;7.112;2024-02-14T02:27:03;5.43;;;2.80;;
313;SDS011;143;51.634;7.112;2024-02-14T02:29:29;10.03;;;2.90;;
313;SDS011;143;51.634;7.112;2024-02-14T02:31:57;4.47;;;2.20;;
313;SDS011;143;51.634;7.112;2024-02-14T02:34:23;5.90;;;3.13;;
313;SDS011;143;51.634;7.112;2024-02-14T02:36:48;3.70;;;2.30;;
313;SDS011;143;51.634;7.112;2024-02-14T02:39:16;4.90;;;2.70;;
313;SDS011;143;51.634;7.112;2024-02-14T02:41:41;7.77;;;2.40;;
313;SDS011;143;51.634;7.112;2024-02-14T02:44:07;3.03;;;2.00;;
313;SDS011;143;51.634;7.112;2024-02-14T02:46:32;3.27;;;2.57;;
313;SDS011;143;51.634;7.112;2024-02-14T02:48:58;5.53;;;2.20;;
313;SDS011;143;51.634;7.112;2024-02-14T02:51:24;4.87;;;2.27;;
313;SDS011;143;51.634;7.112;2024-02-14T02:53:49;6.33;;;2.80;;
313;SDS011;143;51.634;7.112;2024-02-14T02:56:17;2.90;;;2.40;;
313;SDS011;143;51.634;7.112;2024-02-14T02:58:43;5.23;;;1.80;;
313;SDS011;143;51.634;7.112;2024-02-14T03:01:09;4.80;;;2.33;;
313;SDS011;143;51.634;7.112;2024-02-14T03:03:36;6.33;;;2.07;;
313;SDS011;143;51.634;7.112;2024-02-14T03:06:03;2.30;;;2.00;;
313;SDS011;143;51.634;7.112;2024-02-14T03:08:29;2.83;;;1.90;;
313;SDS011;143;51.634;7.112;2024-02-14T03:10:55;3.53;;;2.47;;
313;SDS011;143;51.634;7.112;2024-02-14T03:13:24;12.00;;;2.50;;
313;SDS011;143;51.634;7.112;2024-02-14T03:15:51;5.33;;;2.00;;
313;SDS011;143;51.634;7.112;2024-02-14T03:18:17;4.43;;;1.93;;
313;SDS011;143;51.634;7.112;2024-02-14T03:20:42;5.57;;;2.63;;
313;SDS011;143;51.634;7.112;2024-02-14T03:23:08;4.47;;;2.40;;
313;SDS011;143;51.634;7.112;2024-02-14T03:25:33;2.50;;;1.80;;
313;SDS011;143;51.634;7.112;2024-02-14T03:28:01;5.70;;;2.70;;
313;SDS011;143;51.634;7.112;2024-02-14T03:30:32;4.43;;;2.07;;
313;SDS011;143;51.634;7.112;2024-02-14T03:32:58;2.63;;;1.90;;
313;SDS011;143;51.634;7.112;2024-02-14T03:35:24;2.80;;;1.93;;
313;SDS011;143;51.634;7.112;2024-02-14T03:37:51;3.33;;;2.53;;
313;SDS011;143;51.634;7.112;2024-02-14T03:40:18;2.80;;;1.93;;
313;SDS011;143;51.634;7.112;2024-02-14T03:42:47;5.30;;;2.70;;
313;SDS011;143;51.634;7.112;2024-02-14T03:45:13;4.27;;;2.30;;
313;SDS011;143;51.634;7.112;2024-02-14T03:47:39;5.90;;;2.30;;
313;SDS011;143;51.634;7.112;2024-02-14T03:50:05;3.43;;;2.13;;
313;SDS011;143;51.634;7.112;2024-02-14T03:52:32;4.60;;;2.93;;
313;SDS011;143;51.634;7.112;2024-02-14T03:54:57;20.63;;;2.80;;
313;SDS011;143;51.634;7.112;2024-02-14T03:57:24;6.23;;;2.80;;
313;SDS011;143;51.634;7.112;2024-02-14T03:59:53;6.07;;;2.57;;
313;SDS011;143;51.634;7.112;2024-02-14T04:02:20;4.20;;;2.80;;
313;SDS011;143;51.634;7.112;2024-02-14T04:04:46;5.33;;;2.80;;
313;SDS011;143;51.634;7.112;2024-02-14T04:07:12;4.83;;;2.53;;
313;SDS011;143;51.634;7.112;2024-02-14T04:09:37;6.43;;;3.10;;
313;SDS011;143;51.634;7.112;2024-02-14T04:12:03;9.50;;;3.03;;
313;SDS011;143;51.634;7.112;2024-02-14T04:14:29;4.50;;;3.43;;
313;SDS011;143;51.634;7.112;2024-02-14T04:16:55;3.70;;;3.20;;
313;SDS011;143;51.634;7.112;2024-02-14T04:19:20;6.77;;;3.90;;
313;SDS011;143;51.634;7.112;2024-02-14T04:21:46;6.20;;;4.43;;
313;SDS011;143;51.634;7.112;2024-02-14T04:24:12;7.60;;;4.40;;
313;SDS011;143;51.634;7.112;2024-02-14T04:26:37;8.00;;;5.30;;
313;SDS011;143;51.634;7.112;2024-02-14T04:29:03;11.93;;;5.83;;
313;SDS011;143;51.634;7.112;2024-02-14T04:31:29;11.77;;;6.87;;
313;SDS011;143;51.634;7.112;2024-02-14T04:33:57;10.80;;;6.50;;
313;SDS011;143;51.634;7.112;2024-02-14T04:36:23;8.10;;;6.20;;
313;SDS011;143;51.634;7.112;2024-02-14T04:38:49;10.60;;;6.17;;
313;SDS011;143;51.634;7.112;2024-02-14T04:41:15;10.77;;;6.63;;
313;SDS011;143;51.634;7.112;2024-02-14T04:43:41;13.00;;;7.33;;
313;SDS011;143;51.634;7.112;2024-02-14T04:46:07;9.40;;;6.13;;
313;SDS011;143;51.634;7.112;2024-02-14T04:48:33;8.97;;;6.70;;
313;SDS011;143;51.634;7.112;2024-02-14T04:51:00;7.93;;;6.60;;
313;SDS011;143;51.634;7.112;2024-02-14T04:53:25;8.70;;;6.50;;
313;SDS011;143;51.634;7.112;2024-02-14T04:55:51;8.93;;;6.03;;
313;SDS011;143;51.634;7.112;2024-02-14T04:58:16;10.50;;;5.57;;
313;SDS011;143;51.634;7.112;2024-02-14T05:00:42;12.90;;;6.73;;
313;SDS011;143;51.634;7.112;2024-02-14T05:03:07;9.40;;;6.50;;
313;SDS011;143;51.634;7.112;2024-02-14T05:05:34;10.13;;;7.13;;
313;SDS011;143;51.634;7.112;2024-02-14T05:08:00;9.80;;;6.77;;
313;SDS011;143;51.634;7.112;2024-02-14T05:10:27;10.00;;;6.60;;
313;SDS011;143;51.634;7.112;2024-02-14T05:12:53;9.50;;;7.03;;
313;SDS011;143;51.634;7.112;2024-02-14T05:15:19;13.87;;;7.10;;
313;SDS011;143;51.634;7.112;2024-02-14T05:17:45;21.33;;;7.57;;
313;SDS011;143;51.634;7.112;2024-02-14T05:20:10;8.70;;;7.00;;
313;SDS011;143;51.634;7.112;2024-02-14T05:22:39;8.07;;;6.10;;
313;SDS011;143;51.634;7.112;2024-02-14T05:25:05;8.70;;;6.73;;
313;SDS011;143;51.634;7.112;2024-02-14T05:27:32;13.97;;;7.70;;
313;SDS011;143;51.634;7.112;2024-02-14T05:29:58;11.50;;;7.10;;
313;SDS011;143;51.634;7.112;2024-02-14T05:32:24;8.63;;;6.40;;
313;SDS011;143;51.634;7.112;2024-02-14T05:34:50;8.20;;;6.40;;
313;SDS011;143;51.634;7.112;2024-02-14T05:37:16;10.43;;;7.07;;
313;SDS011;143;51.634;7.112;2024-02-14T05:39:41;9.10;;;6.33;;
313;SDS011;143;51.634;7.112;2024-02-14T05:42:07;8.27;;;6.23;;
313;SDS011;143;51.634;7.112;2024-02-14T05:44:33;11.07;;;7.70;;
313;SDS011;143;51.634;7.112;2024-02-14T05:46:59;7.13;;;6.07;;
313;SDS011;143;51.634;7.112;2024-02-14T05:49:25;9.57;;;7.30;;
313;SDS011;143;51.634;7.112;2024-02-14T05:51:51;11.23;;;6.87;;
313;SDS011;143;51.634;7.112;2024-02-14T05:54:18;9.93;;;7.20;;
313;SDS011;143;51.634;7.112;2024-02-14T05:56:44;12.20;;;6.63;;
313;SDS011;143;51.634;7.112;2024-02-14T05:59:09;14.40;;;7.47;;
313;SDS011;143;51.634;7.112;2024-02-14T06:01:35;13.27;;;8.23;;
313;SDS011;143;51.634;7.112;2024-02-14T06:04:01;16.77;;;7.73;;
313;SDS011;143;51.634;7.112;2024-02-14T06:06:26;10.23;;;8.23;;
313;SDS011;143;51.634;7.112;2024-02-14T06:08:52;13.33;;;8.67;;
313;SDS011;143;51.634;7.112;2024-02-14T06:11:17;13.50;;;7.37;;
313;SDS011;143;51.634;7.112;2024-02-14T06:13:46;13.93;;;8.20;;
313;SDS011;143;51.634;7.112;2024-02-14T06:16:12;11.83;;;8.73;;
313;SDS011;143;51.634;7.112;2024-02-14T06:18:38;15.53;;;7.50;;
313;SDS011;143;51.634;7.112;2024-02-14T06:21:04;12.10;;;7.90;;
313;SDS011;143;51.634;7.112;2024-02-14T06:23:30;12.43;;;8.43;;
313;SDS011;143;51.634;7.112;2024-02-14T06:25:56;13.40;;;8.73;;
313;SDS011;143;51.634;7.112;2024-02-14T06:28:22;16.00;;;9.40;;
313;SDS011;143;51.634;7.112;2024-02-14T06:30:48;15.00;;;9.87;;
313;SDS011;143;51.634;7.112;2024-02-14T06:33:13;16.30;;;9.73;;
313;SDS011;143;51.634;7.112;2024-02-14T06:35:39;15.80;;;8.97;;
313;SDS011;143;51.634;7.112;2024-02-14T06:38:04;15.00;;;10.10;;
313;SDS011;143;51.634;7.112;2024-02-14T06:40:31;15.23;;;10.33;;
313;SDS011;143;51.634;7.112;2024-02-14T06:42:57;12.70;;;9.67;;
313;SDS011;143;51.634;7.112;2024-02-14T06:45:24;14.30;;;10.27;;
313;SDS011;143;51.634;7.112;2024-02-14T06:47:54;14.03;;;10.50;;
313;SDS011;143;51.634;7.112;2024-02-14T06:50:19;18.50;;;9.80;;
313;SDS011;143;51.634;7.112;2024-02-14T06:52:45;13.37;;;9.83;;
313;SDS011;143;51.634;7.112;2024-02-14T06:55:10;15.73;;;10.83;;
313;SDS011;143;51.634;7.112;2024-02-14T06:57:36;13.53;;;9.93;;
313;SDS011;143;51.634;7.112;2024-02-14T07:00:02;15.00;;;11.67;;
313;SDS011;143;51.634;7.112;2024-02-14T07:02:30;19.40;;;11.33;;
313;SDS011;143;51.634;7.112;2024-02-14T07:04:56;16.63;;;12.53;;
313;SDS011;143;51.634;7.112;2024-02-14T07:07:22;16.53;;;12.80;;
313;SDS011;143;51.634;7.112;2024-02-14T07:09:47;19.80;;;14.27;;
313;SDS011;143;51.634;7.112;2024-02-14T07:12:13;31.33;;;17.43;;
313;SDS011;143;51.634;7.112;2024-02-14T07:14:38;22.70;;;15.60;;
313;SDS011;143;51.634;7.112;2024-02-14T07:17:04;22.20;;;15.73;;
313;SDS011;143;51.634;7.112;2024-02-14T07:19:30;23.63;;;16.73;;
313;SDS011;143;51.634;7.112;2024-02-14T07:21:55;22.17;;;16.47;;
313;SDS011;143;51.634;7.112;2024-02-14T07:24:21;21.03;;;16.57;;
313;SDS011;143;51.634;7.112;2024-02-14T07:26:47;27.30;;;17.83;;
313;SDS011;143;51.634;7.112;2024-02-14T07:29:12;30.70;;;18.67;;
313;SDS011;143;51.634;7.112;2024-02-14T07:31:38;27.50;;;18.93;;
313;SDS011;143;51.634;7.112;2024-02-14T07:34:04;26.67;;;19.20;;
313;SDS011;143;51.634;7.112;2024-02-14T07:36:31;26.73;;;19.63;;
313;SDS011;143;51.634;7.112;2024-02-14T07:38:57;25.97;;;17.87;;
313;SDS011;143;51.634;7.112;2024-02-14T07:41:22;23.37;;;18.80;;
313;SDS011;143;51.634;7.112;2024-02-14T07:43:48;28.77;;;17.30;;
313;SDS011;143;51.634;7.112;2024-02-14T07:46:17;24.80;;;18.30;;
313;SDS011;143;51.634;7.112;2024-02-14T07:48:44;22.30;;;17.00;;
313;SDS011;143;51.634;7.112;2024-02-14T07:51:09;26.00;;;16.43;;
313;SDS011;143;51.634;7.112;2024-02-14T07:53:35;19.63;;;15.63;;
313;SDS011;143;51.634;7.112;2024-02-14T07:56:01;22.23;;;15.50;;
313;SDS011;143;51.634;7.112;2024-02-14T07:58:26;24.87;;;16.40;;
313;SDS011;143;51.634;7.112;2024-02-14T08:00:52;24.63;;;16.57;;
313;SDS011;143;51.634;7.112;2024-02-14T08:03:17;23.13;;;15.77;;
313;SDS011;143;51.634;7.112;2024-02-14T08:05:43;27.80;;;16.37;;
313;SDS011;143;51.634;7.112;2024-02-14T08:08:08;29.10;;;17.10;;
313;SDS011;143;51.634;7.112;2024-02-14T08:10:34;32.07;;;18.90;;
313;SDS011;143;51.634;7.112;2024-02-14T08:12:59;27.03;;;18.90;;
313;SDS011;143;51.634;7.112;2024-02-14T08:15:25;26.20;;;18.10;;
313;SDS011;143;51.634;7.112;2024-02-14T08:17:50;23.10;;;17.13;;
313;SDS011;143;51.634;7.112;2024-02-14T08:20:20;26.20;;;19.87;;
313;SDS011;143;51.634;7.112;2024-02-14T08:22:46;26.50;;;17.70;;
313;SDS011;143;51.634;7.112;2024-02-14T08:25:11;27.07;;;18.10;;
313;SDS011;143;51.634;7.112;2024-02-14T08:27:37;26.27;;;17.40;;
313;SDS011;143;51.634;7.112;2024-02-14T08:30:02;23.03;;;15.73;;
313;SDS011;143;51.634;7.112;2024-02-14T08:32:31;24.90;;;17.30;;
313;SDS011;143;51.634;7.112;2024-02-14T08:34:57;27.60;;;15.80;;
313;SDS011;143;51.634;7.112;2024-02-14T08:37:22;19.90;;;14.13;;
313;SDS011;143;51.634;7.112;2024-02-14T08:39:49;19.03;;;13.40;;
313;SDS011;143;51.634;7.112;2024-02-14T08:42:15;19.40;;;13.67;;
313;SDS011;143;51.634;7.112;2024-02-14T08:44:41;18.53;;;12.57;;
313;SDS011;143;51.634;7.112;2024-02-14T08:47:06;19.83;;;12.30;;
313;SDS011;143;51.634;7.112;2024-02-14T08:49:32;27.70;;;13.03;;
313;SDS011;143;51.634;7.112;2024-02-14T08:51:58;20.27;;;12.67;;
313;SDS011;143;51.634;7.112;2024-02-14T08:54:24;21.53;;;11.30;;
313;SDS011;143;51.634;7.112;2024-02-14T08:56:50;23.60;;;10.40;;
313;SDS011;143;51.634;7.112;2024-02-14T08:59:20;17.30;;;11.80;;
313;SDS011;143;51.634;7.112;2024-02-14T09:01:46;19.50;;;11.00;;
313;SDS011;143;51.634;7.112;2024-02-14T09:04:11;20.60;;;12.83;;
313;SDS011;143;51.634;7.112;2024-02-14T09:06:37;30.43;;;11.27;;
313;SDS011;143;51.634;7.112;2024-02-14T09:09:04;20.50;;;11.53;;
313;SDS011;143;51.634;7.112;2024-02-14T09:11:29;17.60;;;10.00;;
313;SDS011;143;51.634;7.112;2024-02-14T09:13:56;19.47;;;11.03;;
313;SDS011;143;51.634;7.112;2024-02-14T09:16:27;27.30;;;12.77;;
313;SDS011;143;51.634;7.112;2024-02-14T09:18:53;18.90;;;12.83;;
313;SDS011;143;51.634;7.112;2024-02-14T09:21:18;17.80;;;10.37;;
313;SDS011;143;51.634;7.112;2024-02-14T09:23:46;17.60;;;12.77;;
313;SDS011;143;51.634;7.112;2024-02-14T09:26:12;15.73;;;11.70;;
313;SDS011;143;51.634;7.112;2024-02-14T09:28:40;21.30;;;10.90;;
313;SDS011;143;51.634;7.112;2024-02-14T09:31:05;13.80;;;11.10;;
313;SDS011;143;51.634;7.112;2024-02-14T09:33:31;16.20;;;10.50;;
313;SDS011;143;51.634;7.112;2024-02-14T09:35:56;15.23;;;12.00;;
313;SDS011;143;51.634;7.112;2024-02-14T09:38:22;19.00;;;11.50;;
313;SDS011;143;51.634;7.112;2024-02-14T09:40:48;18.00;;;12.13;;
313;SDS011;143;51.634;7.112;2024-02-14T09:43:26;19.57;;;11.40;;
313;SDS011;143;51.634;7.112;2024-02-14T09:45:57;17.20;;;11.37;;
313;SDS011;143;51.634;7.112;2024-02-14T09:48:23;16.70;;;11.23;;
313;SDS011;143;51.634;7.112;2024-02-14T09:50:50;19.73;;;11.10;;
313;SDS011;143;51.634;7.112;2024-02-14T09:53:18;16.20;;;11.17;;
313;SDS011;143;51.634;7.112;2024-02-14T09:55:45;13.37;;;10.80;;
313;SDS011;143;51.634;7.112;2024-02-14T09:58:11;21.30;;;11.33;;
313;SDS011;143;51.634;7.112;2024-02-14T10:00:38;15.67;;;12.17;;
313;SDS011;143;51.634;7.112;2024-02-14T10:03:03;19.73;;;12.47;;
313;SDS011;143;51.634;7.112;2024-02-14T10:05:29;20.13;;;13.80;;
313;SDS011;143;51.634;7.112;2024-02-14T10:07:56;17.40;;;13.30;;
313;SDS011;143;51.634;7.112;2024-02-14T10:10:22;25.97;;;14.87;;
313;SDS011;143;51.634;7.112;2024-02-14T10:12:48;22.23;;;15.13;;
313;SDS011;143;51.634;7.112;2024-02-14T10:15:14;29.17;;;13.00;;
313;SDS011;143;51.634;7.112;2024-02-14T10:17:39;23.40;;;13.27;;
313;SDS011;143;51.634;7.112;2024-02-14T10:20:08;20.30;;;13.80;;
313;SDS011;143;51.634;7.112;2024-02-14T10:22:35;21.73;;;12.47;;
313;SDS011;143;51.634;7.112;2024-02-14T10:25:02;18.17;;;10.40;;
313;SDS011;143;51.634;7.112;2024-02-14T10:27:37;17.60;;;11.23;;
313;SDS011;143;51.634;7.112;2024-02-14T10:30:04;22.23;;;9.93;;
313;SDS011;143;51.634;7.112;2024-02-14T10:32:34;18.30;;;10.67;;
313;SDS011;143;51.634;7.112;2024-02-14T10:35:01;22.10;;;9.60;;
313;SDS011;143;51.634;7.112;2024-02-14T10:37:36;12.80;;;7.17;;
313;SDS011;143;51.634;7.112;2024-02-14T10:40:02;19.87;;;10.17;;
313;SDS011;143;51.634;7.112;2024-02-14T10:42:29;15.00;;;6.93;;
313;SDS011;143;51.634;7.112;2024-02-14T10:44:58;17.30;;;8.23;;
313;SDS011;143;51.634;7.112;2024-02-14T10:47:31;12.00;;;7.10;;
313;SDS011;143;51.634;7.112;2024-02-14T10:50:02;18.80;;;7.00;;
313;SDS011;143;51.634;7.112;2024-02-14T10:52:36;11.93;;;7.47;;
313;SDS011;143;51.634;7.112;2024-02-14T10:55:05;20.90;;;7.90;;
313;SDS011;143;51.634;7.112;2024-02-14T10:57:31;12.00;;;8.03;;
313;SDS011;143;51.634;7.112;2024-02-14T10:59:58;17.43;;;7.30;;
313;SDS011;143;51.634;7.112;2024-02-14T11:02:26;11.43;;;7.37;;
313;SDS011;143;51.634;7.112;2024-02-14T11:04:55;14.33;;;6.80;;
313;SDS011;143;51.634;7.112;2024-02-14T11:07:21;11.00;;;6.20;;
313;SDS011;143;51.634;7.112;2024-02-14T11:09:48;16.23;;;6.50;;
313;SDS011;143;51.634;7.112;2024-02-14T11:12:25;11.87;;;6.63;;
313;SDS011;143;51.634;7.112;2024-02-14T11:14:50;8.00;;;5.97;;
313;SDS011;143;51.634;7.112;2024-02-14T11:17:18;16.43;;;8.20;;
313;SDS011;143;51.634;7.112;2024-02-14T11:19:49;10.43;;;6.40;;
313;SDS011;143;51.634;7.112;2024-02-14T11:22:20;10.30;;;5.10;;
313;SDS011;143;51.634;7.112;2024-02-14T11:24:46;12.87;;;6.90;;
313;SDS011;143;51.634;7.112;2024-02-14T11:27:12;12.93;;;5.93;;
313;SDS011;143;51.634;7.112;2024-02-14T11:29:39;10.73;;;6.03;;
313;SDS011;143;51.634;7.112;2024-02-14T11:32:06;12.27;;;5.67;;
313;SDS011;143;51.634;7.112;2024-02-14T11:34:35;7.93;;;5.30;;
313;SDS011;143;51.634;7.112;2024-02-14T11:37:01;13.23;;;5.93;;
313;SDS011;143;51.634;7.112;2024-02-14T11:39:26;9.37;;;5.80;;
313;SDS011;143;51.634;7.112;2024-02-14T11:41:52;8.80;;;6.10;;
313;SDS011;143;51.634;7.112;2024-02-14T11:44:20;10.27;;;5.50;;
313;SDS011;143;51.634;7.112;2024-02-14T11:46:50;7.53;;;5.47;;
313;SDS011;143;51.634;7.112;2024-02-14T11:49:16;14.20;;;6.00;;
313;SDS011;143;51.634;7.112;2024-02-14T11:51:42;10.97;;;5.87;;
313;SDS011;143;51.634;7.112;2024-02-14T11:54:07;6.93;;;5.33;;
313;SDS011;143;51.634;7.112;2024-02-14T11:56:35;14.77;;;5.97;;
313;SDS011;143;51.634;7.112;2024-02-14T11:59:07;10.57;;;7.00;;
313;SDS011;143;51.634;7.112;2024-02-14T12:01:35;11.47;;;5.70;;
313;SDS011;143;51.634;7.112;2024-02-14T12:04:02;11.60;;;6.30;;
313;SDS011;143;51.634;7.112;2024-02-14T12:06:33;9.97;;;5.93;;
313;SDS011;143;51.634;7.112;2024-02-14T12:09:03;10.60;;;5.80;;
313;SDS011;143;51.634;7.112;2024-02-14T12:11:36;9.07;;;5.30;;
313;SDS011;143;51.634;7.112;2024-02-14T12:14:06;15.03;;;5.10;;
313;SDS011;143;51.634;7.112;2024-02-14T12:16:36;6.57;;;5.17;;
313;SDS011;143;51.634;7.112;2024-02-14T12:19:05;11.40;;;6.33;;
313;SDS011;143;51.634;7.112;2024-02-14T12:21:34;9.80;;;4.67;;
313;SDS011;143;51.634;7.112;2024-02-14T12:24:06;9.43;;;5.20;;
313;SDS011;143;51.634;7.112;2024-02-14T12:26:36;4.33;;;3.20;;
313;SDS011;143;51.634;7.112;2024-02-14T12:29:03;8.13;;;3.50;;
313;SDS011;143;51.634;7.112;2024-02-14T12:31:29;5.37;;;3.40;;
313;SDS011;143;51.634;7.112;2024-02-14T12:33:58;7.37;;;2.90;;
313;SDS011;143;51.634;7.112;2024-02-14T12:36:27;5.13;;;2.83;;
313;SDS011;143;51.634;7.112;2024-02-14T12:39:01;7.80;;;3.33;;
313;SDS011;143;51.634;7.112;2024-02-14T12:41:28;4.33;;;3.60;;
313;SDS011;143;51.634;7.112;2024-02-14T12:43:57;5.97;;;3.07;;
313;SDS011;143;51.634;7.112;2024-02-14T12:46:25;5.57;;;2.97;;
313;SDS011;143;51.634;7.112;2024-02-14T12:48:52;5.30;;;2.97;;
313;SDS011;143;51.634;7.112;2024-02-14T12:51:17;7.73;;;3.57;;
313;SDS011;143;51.634;7.112;2024-02-14T12:53:44;6.33;;;3.70;;
313;SDS011;143;51.634;7.112;2024-02-14T12:56:09;13.93;;;4.90;;
313;SDS011;143;51.634;7.112;2024-02-14T12:58:35;6.80;;;4.27;;
313;SDS011;143;51.634;7.112;2024-02-14T13:01:01;6.93;;;4.50;;
313;SDS011;143;51.634;7.112;2024-02-14T13:03:30;6.23;;;4.20;;
313;SDS011;143;51.634;7.112;2024-02-14T13:05:56;5.47;;;3.93;;
313;SDS011;143;51.634;7.112;2024-02-14T13:08:21;6.50;;;4.30;;
313;SDS011;143;51.634;7.112;2024-02-14T13:10:48;4.57;;;4.00;;
313;SDS011;143;51.634;7.112;2024-02-14T13:13:14;5.47;;;4.70;;
313;SDS011;143;51.634;7.112;2024-02-14T13:15:40;15.83;;;5.17;;
313;SDS011;143;51.634;7.112;2024-02-14T13:18:07;6.10;;;5.00;;
313;SDS011;143;51.634;7.112;2024-02-14T13:20:33;9.80;;;6.63;;
313;SDS011;143;51.634;7.112;2024-02-14T13:22:58;19.83;;;7.10;;
313;SDS011;143;51.634;7.112;2024-02-14T13:25:24;8.03;;;5.90;;
313;SDS011;143;51.634;7.112;2024-02-14T13:27:51;9.63;;;7.07;;
313;SDS011;143;51.634;7.112;2024-02-14T13:30:16;12.93;;;7.50;;
313;SDS011;143;51.634;7.112;2024-02-14T13:32:43;11.53;;;7.70;;
313;SDS011;143;51.634;7.112;2024-02-14T13:35:09;9.83;;;7.77;;
313;SDS011;143;51.634;7.112;2024-02-14T13:37:36;9.70;;;8.27;;
313;SDS011;143;51.634;7.112;2024-02-14T13:40:01;12.63;;;8.60;;
313;SDS011;143;51.634;7.112;2024-02-14T13:42:29;11.63;;;9.20;;
313;SDS011;143;51.634;7.112;2024-02-14T13:44:55;14.83;;;9.67;;
313;SDS011;143;51.634;7.112;2024-02-14T13:47:21;12.80;;;10.00;;
313;SDS011;143;51.634;7.112;2024-02-14T13:49:48;13.30;;;10.47;;
313;SDS011;143;51.634;7.112;2024-02-14T13:52:13;14.30;;;8.90;;
313;SDS011;143;51.634;7.112;2024-02-14T13:54:40;15.50;;;9.90;;
313;SDS011;143;51.634;7.112;2024-02-14T13:57:06;12.37;;;7.73;;
313;SDS011;143;51.634;7.112;2024-02-14T13:59:32;10.73;;;7.73;;
313;SDS011;143;51.634;7.112;2024-02-14T14:01:57;10.13;;;7.50;;
313;SDS011;143;51.634;7.112;2024-02-14T14:04:23;11.60;;;7.43;;
313;SDS011;143;51.634;7.112;2024-02-14T14:06:50;10.83;;;7.67;;
313;SDS011;143;51.634;7.112;2024-02-14T14:09:16;9.20;;;7.53;;
313;SDS011;143;51.634;7.112;2024-02-14T14:11:41;12.17;;;7.73;;
313;SDS011;143;51.634;7.112;2024-02-14T14:14:07;9.73;;;6.80;;
313;SDS011;143;51.634;7.112;2024-02-14T14:16:33;11.13;;;7.93;;
313;SDS011;143;51.634;7.112;2024-02-14T14:18:59;12.40;;;7.33;;
313;SDS011;143;51.634;7.112;2024-02-14T14:21:25;14.50;;;6.93;;
313;SDS011;143;51.634;7.112;2024-02-14T14:23:50;10.77;;;6.57;;
313;SDS011;143;51.634;7.112;2024-02-14T14:26:16;10.80;;;6.30;;
313;SDS011;143;51.634;7.112;2024-02-14T14:28:42;9.10;;;6.63;;
313;SDS011;143;51.634;7.112;2024-02-14T14:31:07;7.40;;;5.70;;
313;SDS011;143;51.634;7.112;2024-02-14T14:33:36;10.73;;;6.90;;
313;SDS011;143;51.634;7.112;2024-02-14T14:36:03;8.43;;;5.77;;
313;SDS011;143;51.634;7.112;2024-02-14T14:38:31;11.73;;;4.70;;
313;SDS011;143;51.634;7.112;2024-02-14T14:40:57;4.73;;;4.20;;
313;SDS011;143;51.634;7.112;2024-02-14T14:43:25;11.70;;;5.07;;
313;SDS011;143;51.634;7.112;2024-02-14T14:45:50;7.77;;;3.87;;
313;SDS011;143;51.634;7.112;2024-02-14T14:48:18;13.13;;;3.50;;
313;SDS011;143;51.634;7.112;2024-02-14T14:50:43;5.27;;;3.80;;
313;SDS011;143;51.634;7.112;2024-02-14T14:53:09;5.53;;;3.63;;
313;SDS011;143;51.634;7.112;2024-02-14T14:58:20;4.50;;;4.03;;
313;SDS011;143;51.634;7.112;2024-02-14T15:00:47;8.40;;;4.10;;
313;SDS011;143;51.634;7.112;2024-02-14T15:03:13;6.77;;;4.53;;
313;SDS011;143;51.634;7.112;2024-02-14T15:05:38;7.10;;;4.30;;
313;SDS011;143;51.634;7.112;2024-02-14T15:08:05;6.83;;;4.90;;
313;SDS011;143;51.634;7.112;2024-02-14T15:10:32;12.07;;;5.50;;
313;SDS011;143;51.634;7.112;2024-02-14T15:12:59;6.70;;;6.13;;
313;SDS011;143;51.634;7.112;2024-02-14T15:15:24;5.20;;;4.90;;
313;SDS011;143;51.634;7.112;2024-02-14T15:17:50;12.33;;;6.00;;
313;SDS011;143;51.634;7.112;2024-02-14T15:20:15;7.40;;;5.33;;
313;SDS011;143;51.634;7.112;2024-02-14T15:22:41;7.67;;;4.63;;
313;SDS011;143;51.634;7.112;2024-02-14T15:25:06;5.83;;;4.90;;
313;SDS011;143;51.634;7.112;2024-02-14T15:27:32;6.73;;;4.70;;
313;SDS011;143;51.634;7.112;2024-02-14T15:29:58;8.50;;;4.97;;